Map

Track Data

SID SEASON NUMBER BASIN SUBBASIN NAME ISO_TIME NATURE LAT LON WMO_WIND WMO_PRES WMO_AGENCY TRACK_TYPE DIST2LAND LANDFALL IFLAG USA_AGENCY USA_ATCF_ID USA_LAT USA_LON USA_RECORD USA_STATUS USA_WIND USA_PRES USA_SSHS USA_R34_NE USA_R34_SE USA_R34_SW USA_R34_NW USA_R50_NE USA_R50_SE USA_R50_SW USA_R50_NW USA_R64_NE USA_R64_SE USA_R64_SW USA_R64_NW USA_POCI USA_ROCI USA_RMW USA_EYE TOKYO_LAT TOKYO_LON TOKYO_GRADE TOKYO_WIND TOKYO_PRES TOKYO_R50_DIR TOKYO_R50_LONG TOKYO_R50_SHORT TOKYO_R30_DIR TOKYO_R30_LONG TOKYO_R30_SHORT TOKYO_LAND CMA_LAT CMA_LON CMA_CAT CMA_WIND CMA_PRES HKO_LAT HKO_LON HKO_CAT HKO_WIND HKO_PRES NEWDELHI_LAT NEWDELHI_LON NEWDELHI_GRADE NEWDELHI_WIND NEWDELHI_PRES NEWDELHI_CI NEWDELHI_DP NEWDELHI_POCI REUNION_LAT REUNION_LON REUNION_TYPE REUNION_WIND REUNION_PRES REUNION_TNUM REUNION_CI REUNION_RMW REUNION_R34_NE REUNION_R34_SE REUNION_R34_SW REUNION_R34_NW REUNION_R50_NE REUNION_R50_SE REUNION_R50_SW REUNION_R50_NW REUNION_R64_NE REUNION_R64_SE REUNION_R64_SW REUNION_R64_NW BOM_LAT BOM_LON BOM_TYPE BOM_WIND BOM_PRES BOM_TNUM BOM_CI BOM_RMW BOM_R34_NE BOM_R34_SE BOM_R34_SW BOM_R34_NW BOM_R50_NE BOM_R50_SE BOM_R50_SW BOM_R50_NW BOM_R64_NE BOM_R64_SE BOM_R64_SW BOM_R64_NW BOM_ROCI BOM_POCI BOM_EYE BOM_POS_METHOD BOM_PRES_METHOD NADI_LAT NADI_LON NADI_CAT NADI_WIND NADI_PRES WELLINGTON_LAT WELLINGTON_LON WELLINGTON_WIND WELLINGTON_PRES DS824_LAT DS824_LON DS824_STAGE DS824_WIND DS824_PRES TD9636_LAT TD9636_LON TD9636_STAGE TD9636_WIND TD9636_PRES TD9635_LAT TD9635_LON TD9635_WIND TD9635_PRES TD9635_ROCI NEUMANN_LAT NEUMANN_LON NEUMANN_CLASS NEUMANN_WIND NEUMANN_PRES MLC_LAT MLC_LON MLC_CLASS MLC_WIND MLC_PRES USA_GUST BOM_GUST BOM_GUST_PER REUNION_GUST REUNION_GUST_PER USA_SEAHGT USA_SEARAD_NE USA_SEARAD_SE USA_SEARAD_SW USA_SEARAD_NW STORM_SPEED STORM_DIR
1970042S14155 1970 19 SP EA FLORENCE 1970-02-10 17:00:00 NR -14.1000 154.500 main 569 569 __________O___ -1 -14.1000 154.500 2 35 0 0
1970042S14155 1970 19 SP EA FLORENCE 1970-02-10 18:00:00 TS -14.1073 154.503 main 569 569 O_________P___ jtwc_sh SH171970 -14.1000 154.500 35 0 -14.1146 154.506 2 35 1 160
1970042S14155 1970 19 SP EA FLORENCE 1970-02-10 21:00:00 TS -14.1526 154.505 main 577 577 P_________P___ SH171970 -14.1450 154.490 37 0 -14.1627 154.525 2 36 1 0
1970042S14155 1970 19 SP EA FLORENCE 1970-02-10 23:00:00 TS -14.1810 154.511 998 bom main 577 577 P_____O___P___ SH171970 -14.1799 154.493 39 0 -14.1000 154.500 998 -14.2028 154.540 2 37 1 0
1970042S14155 1970 19 SP EA FLORENCE 1970-02-11 00:00:00 TS -14.1966 154.528 main 577 577 O_____P__OP_O_ jtwc_sh SH171970 -14.2000 154.500 40 0 -14.1696 154.527 997 -14.2000 154.500 TC 35 998 -14.2266 154.548 2 37 -14.1000 154.700 TC 35 998 2 150
1970042S14155 1970 19 SP EA FLORENCE 1970-02-11 03:00:00 TS -14.3045 154.578 main 592 592 P_____P__PP_P_ SH171970 -14.2775 154.543 40 0 -14.3736 154.608 996 -14.3515 154.508 TC 37 996 -14.3179 154.576 2 39 -14.2350 154.745 TC 37 996 3 157
1970042S14155 1970 19 SP EA FLORENCE 1970-02-11 05:00:00 TS -14.4000 154.618 main 600 600 P_____P__PO_P_ SH171970 -14.3526 154.581 40 0 -14.5009 154.660 995 -14.4522 154.527 TC 39 995 -14.4000 154.600 2 40 -14.3398 154.780 TC 39 995 3 159
1970042S14155 1970 19 SP EA FLORENCE 1970-02-11 06:00:00 TS -14.4519 154.640 main 608 608 O_____P__PP_O_ jtwc_sh SH171970 -14.4000 154.600 40 0 -14.5606 154.685 994 -14.5024 154.543 TC 40 995 -14.4485 154.614 2 39 -14.4000 154.800 TC 40 995 4 163
1970042S14155 1970 19 SP EA FLORENCE 1970-02-11 09:00:00 TS -14.6299 154.692 main 623 623 P_____P__PP_P_ SH171970 -14.5924 154.605 37 0 -14.7179 154.757 993 -14.6521 154.631 TC 42 993 -14.6174 154.674 2 38 -14.6075 154.878 TC 42 993 4 159
1970042S14155 1970 19 SP EA FLORENCE 1970-02-11 11:00:00 TS -14.7504 154.754 992 bom main 647 647 P_____O__PP_P_ SH171970 -14.7337 154.649 35 0 -14.8000 154.800 992 -14.7509 154.733 TC 44 992 -14.7416 154.743 2 37 -14.7421 154.953 TC 44 992 4 149
1970042S14155 1970 19 SP EA FLORENCE 1970-02-11 12:00:00 TS -14.8064 154.802 main 647 647 O_____P__OP_O_ jtwc_sh SH171970 -14.8000 154.700 35 0 -14.8336 154.822 992 -14.8000 154.800 TC 45 992 -14.8049 154.790 2 37 -14.8000 155.000 TC 45 992 5 131
1970042S14155 1970 19 SP EA FLORENCE 1970-02-11 14:00:00 TS -14.9032 154.935 992 bom main 662 662 P_____O__PP_P_ SH171970 -14.9079 154.870 35 0 -14.9000 154.900 992 -14.8969 154.968 TC 45 992 -14.9295 154.915 2 36 -14.8769 155.090 TC 45 992 5 124
1970042S14155 1970 19 SP EA FLORENCE 1970-02-11 15:00:00 TS -14.9502 155.025 main 678 678 P_____P__PP_P_ SH171970 -14.9575 154.983 35 0 -14.9454 154.970 992 -14.9444 155.068 TC 45 992 -14.9894 154.996 2 35 -14.9074 155.148 TC 45 992 7 115
1970042S14155 1970 19 SP EA FLORENCE 1970-02-11 17:00:00 TS -15.0429 155.245 main 693 693 P_____P__PO_P_ SH171970 -15.0526 155.250 35 0 -15.0500 155.175 992 -15.0361 155.296 TC 45 992 -15.1000 155.200 2 35 -14.9661 155.300 TC 45 992 7 112
1970042S14155 1970 19 SP EA FLORENCE 1970-02-11 18:00:00 TS -15.0885 155.376 main 716 716 O_____P__PP_O_ jtwc_sh SH171970 -15.1000 155.400 35 0 -15.1037 155.304 992 -15.0800 155.422 TC 45 992 -15.1472 155.327 2 35 -15.0000 155.400 TC 45 992 9 110
1970042S14155 1970 19 SP EA FLORENCE 1970-02-11 20:00:00 TS -15.1869 155.663 992 bom main 747 744 P_____O__PP_P_ SH171970 -15.2108 155.699 35 0 -15.2000 155.600 992 -15.1624 155.695 TC 45 992 -15.2342 155.627 2 35 -15.1030 155.660 TC 45 992 9 109
1970042S14155 1970 19 SP EA FLORENCE 1970-02-11 21:00:00 TS -15.2332 155.822 main 744 735 P_____P__PP_P_ SH171970 -15.2649 155.862 35 0 -15.2374 155.759 992 -15.2005 155.840 TC 45 992 -15.2738 155.796 2 35 -15.1576 155.812 TC 45 992 10 105
1970042S14155 1970 19 SP EA FLORENCE 1970-02-11 23:00:00 TS -15.3161 156.162 992 bom main 729 723 P_____O__PP_P_ SH171970 -15.3614 156.214 35 0 -15.3000 156.100 992 -15.2696 156.143 TC 45 992 -15.3455 156.165 2 35 -15.2588 156.137 TC 45 992 10 103
1970042S14155 1970 19 SP EA FLORENCE 1970-02-12 00:00:00 TS -15.3507 156.335 main 733 706 O_____P__OP_O_ jtwc_sh SH171970 -15.4000 156.400 35 0 -15.3269 156.248 991 -15.3000 156.300 TC 45 992 -15.3776 156.361 2 35 -15.3000 156.300 TC 45 992 10 99
1970042S14155 1970 19 SP EA FLORENCE 1970-02-12 03:00:00 TS -15.4192 156.854 main 701 687 P_____P__PP_P_ SH171970 -15.4650 156.985 35 0 -15.3875 156.646 991 -15.3745 156.783 TC 45 991 -15.4585 156.980 2 35 -15.3649 156.743 TC 45 991 10 97
1970042S14155 1970 19 SP EA FLORENCE 1970-02-12 05:00:00 TS -15.4491 157.210 main 687 687 P_____P__PO_P_ SH171970 -15.4885 157.395 35 0 -15.4169 156.910 991 -15.4123 157.113 TC 45 991 -15.5000 157.400 2 35 -15.3885 157.044 TC 45 991 10 95
1970042S14155 1970 19 SP EA FLORENCE 1970-02-12 06:00:00 TS -15.4626 157.390 main 689 670 O_____P__PP_O_ jtwc_sh SH171970 -15.5000 157.600 35 0 -15.4299 157.052 990 -15.4284 157.280 TC 45 991 -15.5171 157.608 2 34 -15.4000 157.200 TC 45 991 10 95
1970042S14155 1970 19 SP EA FLORENCE 1970-02-12 09:00:00 TS -15.5034 157.913 main 670 648 P_____P__PP_P_ SH171970 -15.5453 158.205 35 0 -15.4690 157.559 990 -15.4680 157.788 TC 45 990 -15.5559 158.220 2 33 -15.4492 157.618 TC 45 990 10 94
1970042S14155 1970 19 SP EA FLORENCE 1970-02-12 11:00:00 TS -15.5294 158.280 990 bom main 648 642 P_____O__PP_P_ SH171970 -15.5814 158.602 35 0 -15.5000 158.000 990 4 -15.4898 158.129 TC 45 990 -15.5731 158.620 2 32 -15.4829 157.974 TC 45 990 10 94
1970042S14155 1970 19 SP EA FLORENCE 1970-02-12 12:00:00 TS -15.5366 158.443 main 642 606 O_____P__OP_O_ jtwc_sh SH171970 -15.6000 158.800 35 0 -15.5183 158.261 990 -15.5000 158.300 TC 45 990 -15.5797 158.818 2 32 -15.5000 158.200 TC 45 990 13 93
1970042S14155 1970 19 SP EA FLORENCE 1970-02-12 15:00:00 TS -15.5747 159.206 main 606 579 ______P___P_P_ SH171970 -1 -15.5824 159.184 990 TC -15.5937 159.409 2 30 -15.5516 159.102 TC 45 990 16 93
1970042S14155 1970 19 SP EA FLORENCE 1970-02-12 17:00:00 TS -15.6095 159.850 main 575 564 ______P___O_P_ SH171970 -1 -15.6293 159.884 991 TC -15.6000 159.800 1 30 -15.5845 159.824 TC 45 990 20 94
1970042S14155 1970 19 SP MM FLORENCE 1970-02-12 18:00:00 TS -15.6354 160.234 main 564 557 ______P_____O_ -1 -15.6531 160.251 991 TC 1 -15.6000 160.200 TC 45 991 22 95
1970042S14155 1970 19 SP MM FLORENCE 1970-02-12 20:00:00 NR -15.7000 161.000 992 bom main 555 ______O_______ -1 -15.7000 161.000 992 TC 1 TC 22 95

Digital Typhoon Data and Search

About IBTrACS Database

This database is a web-friendly format of International Best Track Archive for Climate Stewardship (IBTrACS), a global best track data archive curated by NOAA dating back to 1842.

Updated: 2021-10-25